Ogdensburg, WI (54962)

9:18 AM CDT on June 22, 2017 (GMT -0500)
Bear Lake | | Change Station
Active Advisory: Flood Warning

Elev 806 ft 44.40 °N, 88.94 °W | Updated 3 minutes ago

Partly Cloudy
Partly Cloudy
71.8 °F
Feels Like 71.8 °F
N
3.0
Wind Variable Wind from WNW
Gusts 4.0 mph

Today
High -- | Low -- °F
--% Chance of Precip.
Yesterday
High -- | Low -- °F
Precip. -- in
Pressure 29.73 in
Visibility 10.0 miles
Clouds Clear
Dew Point 70 °F
Humidity 96%
Rainfall 0.84 in
Snow Depth Not available.
5:11 AM 8:44 PM
Waning Crescent, 4% visible
METAR KPCZ 221355Z AUTO 22007KT 10SM CLR 23/21 A2973 RMK AO2 T02340213
Pressure 29.73 in
Visibility 10.0 miles
Clouds Clear
Dew Point 70 °F
Humidity 96%
Rainfall 0.84 in
Snow Depth Not available.
5:11 AM 8:44 PM
Waning Crescent, 4% visible
METAR KPCZ 221355Z AUTO 22007KT 10SM CLR 23/21 A2973 RMK AO2 T02340213

Get Your Daily Forecast Email!

Thanks for signing up!

Be on the lookout for a verification email in your inbox.

You'll start receiving severe weather alerts in your inbox..

×

10-Day Weather Forecast

Almanac

Astronomy

Jun. 22, 2017 Rise Set
Actual Time
Civil Twilight
Nautical Twilight
Astronomical Twilight
Moon
Length of Visible Light
Length of Day
Tomorrow will be .
, % of the Moon is Illuminated

Today's Extremes

State Highs State Lows

Community

WunderPhotos

Category 6

Welcome to Category 6. This is the collective home for Weather Underground's featured writeups by Dr. Jeff Masters (right), Bob Henson (left), Chris Burt, and other regular contributors.

Nearby

Air Quality

  Air Quality AQ Index Pollutant
Not available.

Snow Depth

Station Depth Elevation

Earthquake Activity

City Distance Mag. Time & Date
Minimum magnitude displayed is 2.5.

Coastal Water Temperatures

Place Temperature

Stations

Nearby Weather Stations

Station Location Temp. Windchill Dew Point Humidity Wind Precip. Elev Updated Type
                   

Watches & Warnings

Flood Warning
Issued: 8:16 PM CDT Jun. 21, 2017 – National Weather Service

The Flood Warning continues for
the Wolf River near Shiocton.
* At 7:48 am Wednesday the stage was 12.5 feet.
* Flood stage is 12.0 feet.
* Minor flooding is occurring and minor flooding is forecast.
* Forecast... the river will continue to fall to below flood stage by
Sunday morning.
* At 12.5 feet, there is widespread lowland flooding. Water is
surrounding structures along the river Near Island and Mill Street.



Lat... Lon 4468 8852 4433 8848 4434 8867 4440 8867
      4450 8863 4468 8867